Missouri River (Missouri), Jefferson City (06910450)

StateMissouriLatestUnknown (114000 cfs)
RiverMissouri RiverRatingObservedEstimated
Updated2020-08-11 18:45 (15 minutes ago)Flood - The river is flooding. Obstacles can be treacherous or deadly. The river should be avoided at this stage for casual trips and definitely for the inexperienced. Trips should be attempted only with protective gear and equipment.Flood(none)(none)
Discharge114000 cfs (median: 84900 cfs)High - The river is high and potentially dangerous, especially for the young and / or inexperienced. Normal stream obstacles are sometimes difficult to navigate. Extended distances can be attempted, but canoe travel may not be advisable.High(none)(none)
Height15.02 feetGood - Conditions are ideal for a canoe or kayak. Boats typically will drag on fewer than one-quarter of riffles, if at all, and portages are unnecessary or rare. Normal float lengths can be attempted without a problem.Good(none)(none)
TrendSteady (rising over 24 hours)Low - River is low but can still be floated. Some riffles are okay but most come with significant dragging and might need a portage. Float lengths should be reduced to accommodate low flow, dragging, and portages.Low(none)(none)
USGSExternal icon USGS Site (External icon Google Maps)Poor - River is too low to float comfortably. Most or all riffles will drag or must be portaged and some obstacles (such as slick shelf rock) cause undue problems. Avoid the river at this stage for casual paddling trips.Poor(none)(none)

Trending Data

Plot Image

Trips for Missouri River (Missouri), Jefferson City (06910450)

DateStartEndDistanceConditionDischargeHeightFishingDetails

A total of 0 rows are displayed.

Condition Descriptions

Fishing Conditions

Fish Species

Notes

Classic Trip List

The classic River Trips application is still available for use. It is updated with the new system using a data retrofit. It is no longer maintained. The original River Trips application is no longer updated (as of 1 Dec 2016) but can be checked for errors or for the condition of the data before it was converted to the new system.

Gauge Data Table

ObservationHeightDischargeMaximum
Discharge
Minimum
Discharge
Mean
Discharge
P05P10P20P25P50
(Median)
P75P80P90P95
2020-08-11 18:45 15.02 114000 130000 (2019) 62200 (2016) 88400 63000 64100 84900 115000 124000
2020-08-11 17:45 15.03 114000 130000 (2019) 62200 (2016) 88400 63000 64100 84900 115000 124000
2020-08-11 16:45 15.10 115000 130000 (2019) 62200 (2016) 88400 63000 64100 84900 115000 124000
2020-08-11 15:45 15.15 116000 130000 (2019) 62200 (2016) 88400 63000 64100 84900 115000 124000
2020-08-11 14:45 15.15 116000 130000 (2019) 62200 (2016) 88400 63000 64100 84900 115000 124000
2020-08-11 13:45 15.18 116000 130000 (2019) 62200 (2016) 88400 63000 64100 84900 115000 124000
2020-08-11 12:45 15.18 116000 130000 (2019) 62200 (2016) 88400 63000 64100 84900 115000 124000
2020-08-11 11:45 15.13 116000 130000 (2019) 62200 (2016) 88400 63000 64100 84900 115000 124000
2020-08-11 10:45 15.17 116000 130000 (2019) 62200 (2016) 88400 63000 64100 84900 115000 124000
2020-08-11 09:45 15.10 115000 130000 (2019) 62200 (2016) 88400 63000 64100 84900 115000 124000
2020-08-11 08:45 15.06 115000 130000 (2019) 62200 (2016) 88400 63000 64100 84900 115000 124000
2020-08-11 07:45 15.03 114000 130000 (2019) 62200 (2016) 88400 63000 64100 84900 115000 124000
2020-08-11 06:45 14.92 113000 130000 (2019) 62200 (2016) 88400 63000 64100 84900 115000 124000
2020-08-11 05:45 14.80 112000 130000 (2019) 62200 (2016) 88400 63000 64100 84900 115000 124000
2020-08-11 04:45 14.70 111000 130000 (2019) 62200 (2016) 88400 63000 64100 84900 115000 124000
2020-08-11 03:45 14.64 110000 130000 (2019) 62200 (2016) 88400 63000 64100 84900 115000 124000
2020-08-11 02:45 14.53 109000 130000 (2019) 62200 (2016) 88400 63000 64100 84900 115000 124000
2020-08-11 01:45 14.44 108000 130000 (2019) 62200 (2016) 88400 63000 64100 84900 115000 124000
2020-08-11 00:45 14.33 107000 130000 (2019) 62200 (2016) 88400 63000 64100 84900 115000 124000
2020-08-10 23:45 14.23 106000 133000 (2019) 65800 (2016) 87100 66100 66500 83200 110000 124000
2020-08-10 22:45 14.14 105000 133000 (2019) 65800 (2016) 87100 66100 66500 83200 110000 124000
2020-08-10 21:45 13.99 104000 133000 (2019) 65800 (2016) 87100 66100 66500 83200 110000 124000
2020-08-10 20:45 13.93 104000 133000 (2019) 65800 (2016) 87100 66100 66500 83200 110000 124000
2020-08-10 19:45 13.84 103000 133000 (2019) 65800 (2016) 87100 66100 66500 83200 110000 124000
2020-08-10 18:45 13.80 102000 133000 (2019) 65800 (2016) 87100 66100 66500 83200 110000 124000
2020-08-10 17:45 13.70 101000 133000 (2019) 65800 (2016) 87100 66100 66500 83200 110000 124000
2020-08-10 16:45 13.56 100000 133000 (2019) 65800 (2016) 87100 66100 66500 83200 110000 124000
2020-08-10 15:45 13.50 99700 133000 (2019) 65800 (2016) 87100 66100 66500 83200 110000 124000
2020-08-10 14:45 13.43 99000 133000 (2019) 65800 (2016) 87100 66100 66500 83200 110000 124000
2020-08-10 13:45 13.34 98300 133000 (2019) 65800 (2016) 87100 66100 66500 83200 110000 124000
2020-08-10 12:45 13.30 97900 133000 (2019) 65800 (2016) 87100 66100 66500 83200 110000 124000
2020-08-10 11:45 13.20 97000 133000 (2019) 65800 (2016) 87100 66100 66500 83200 110000 124000
2020-08-10 10:45 13.12 96300 133000 (2019) 65800 (2016) 87100 66100 66500 83200 110000 124000
2020-08-10 09:45 13.06 95800 133000 (2019) 65800 (2016) 87100 66100 66500 83200 110000 124000
2020-08-10 08:45 13.00 95300 133000 (2019) 65800 (2016) 87100 66100 66500 83200 110000 124000
2020-08-10 07:45 12.94 94700 133000 (2019) 65800 (2016) 87100 66100 66500 83200 110000 124000
2020-08-10 06:45 12.91 94500 133000 (2019) 65800 (2016) 87100 66100 66500 83200 110000 124000
2020-08-10 05:45 12.89 94300 133000 (2019) 65800 (2016) 87100 66100 66500 83200 110000 124000
2020-08-10 04:45 12.86 94100 133000 (2019) 65800 (2016) 87100 66100 66500 83200 110000 124000
2020-08-10 03:45 12.82 93700 133000 (2019) 65800 (2016) 87100 66100 66500 83200 110000 124000
2020-08-10 02:45 12.80 93500 133000 (2019) 65800 (2016) 87100 66100 66500 83200 110000 124000
2020-08-10 01:45 12.77 93300 133000 (2019) 65800 (2016) 87100 66100 66500 83200 110000 124000
2020-08-10 00:45 12.78 93400 133000 (2019) 65800 (2016) 87100 66100 66500 83200 110000 124000
2020-08-09 23:45 12.74 93000 135000 (2019) 71600 (2016) 93100 73700 76700 86500 113000 126000
2020-08-09 22:45 12.76 93200 135000 (2019) 71600 (2016) 93100 73700 76700 86500 113000 126000
2020-08-09 21:45 12.76 93200 135000 (2019) 71600 (2016) 93100 73700 76700 86500 113000 126000
2020-08-09 20:45 12.73 93000 135000 (2019) 71600 (2016) 93100 73700 76700 86500 113000 126000
2020-08-09 19:45 12.74 93000 135000 (2019) 71600 (2016) 93100 73700 76700 86500 113000 126000
2020-08-09 18:45 12.76 93200 135000 (2019) 71600 (2016) 93100 73700 76700 86500 113000 126000
2020-08-09 17:45 12.76 93200 135000 (2019) 71600 (2016) 93100 73700 76700 86500 113000 126000
2020-08-09 16:45 12.77 93300 135000 (2019) 71600 (2016) 93100 73700 76700 86500 113000 126000
2020-08-09 15:45 12.78 93400 135000 (2019) 71600 (2016) 93100 73700 76700 86500 113000 126000
2020-08-09 14:45 12.82 93700 135000 (2019) 71600 (2016) 93100 73700 76700 86500 113000 126000
2020-08-09 13:45 12.83 93800 135000 (2019) 71600 (2016) 93100 73700 76700 86500 113000 126000
2020-08-09 12:45 12.82 93700 135000 (2019) 71600 (2016) 93100 73700 76700 86500 113000 126000
2020-08-09 11:45 12.84 93900 135000 (2019) 71600 (2016) 93100 73700 76700 86500 113000 126000
2020-08-09 10:45 12.86 94100 135000 (2019) 71600 (2016) 93100 73700 76700 86500 113000 126000
2020-08-09 09:45 12.88 94200 135000 (2019) 71600 (2016) 93100 73700 76700 86500 113000 126000
2020-08-09 08:45 12.87 94100 135000 (2019) 71600 (2016) 93100 73700 76700 86500 113000 126000
2020-08-09 07:45 12.91 94500 135000 (2019) 71600 (2016) 93100 73700 76700 86500 113000 126000
2020-08-09 06:45 12.92 94600 135000 (2019) 71600 (2016) 93100 73700 76700 86500 113000 126000
2020-08-09 05:45 12.93 94700 135000 (2019) 71600 (2016) 93100 73700 76700 86500 113000 126000
2020-08-09 04:45 12.97 95000 135000 (2019) 71600 (2016) 93100 73700 76700 86500 113000 126000
2020-08-09 03:45 12.97 95000 135000 (2019) 71600 (2016) 93100 73700 76700 86500 113000 126000
2020-08-09 02:45 12.98 95100 135000 (2019) 71600 (2016) 93100 73700 76700 86500 113000 126000
2020-08-09 01:45 13.00 95300 135000 (2019) 71600 (2016) 93100 73700 76700 86500 113000 126000
2020-08-09 00:45 12.99 95200 135000 (2019) 71600 (2016) 93100 73700 76700 86500 113000 126000
2020-08-08 23:45 12.98 95100 136000 (2019) 84500 (2016) 102000 84800 85400 100000 119000 129000
2020-08-08 22:45 13.01 95400 136000 (2019) 84500 (2016) 102000 84800 85400 100000 119000 129000
2020-08-08 21:45 13.06 95800 136000 (2019) 84500 (2016) 102000 84800 85400 100000 119000 129000
2020-08-08 20:45 13.06 95800 136000 (2019) 84500 (2016) 102000 84800 85400 100000 119000 129000
2020-08-08 19:45 13.08 96000 136000 (2019) 84500 (2016) 102000 84800 85400 100000 119000 129000
2020-08-08 18:45 13.09 96100 136000 (2019) 84500 (2016) 102000 84800 85400 100000 119000 129000
2020-08-08 17:45 13.08 96000 136000 (2019) 84500 (2016) 102000 84800 85400 100000 119000 129000
2020-08-08 16:45 13.09 96100 136000 (2019) 84500 (2016) 102000 84800 85400 100000 119000 129000
2020-08-08 15:45 13.12 96300 136000 (2019) 84500 (2016) 102000 84800 85400 100000 119000 129000
2020-08-08 14:45 13.16 96600 136000 (2019) 84500 (2016) 102000 84800 85400 100000 119000 129000
2020-08-08 13:45 13.12 96300 136000 (2019) 84500 (2016) 102000 84800 85400 100000 119000 129000
2020-08-08 12:45 13.17 96700 136000 (2019) 84500 (2016) 102000 84800 85400 100000 119000 129000
2020-08-08 11:45 13.21 97100 136000 (2019) 84500 (2016) 102000 84800 85400 100000 119000 129000
2020-08-08 10:45 13.20 97000 136000 (2019) 84500 (2016) 102000 84800 85400 100000 119000 129000
2020-08-08 09:45 13.25 97400 136000 (2019) 84500 (2016) 102000 84800 85400 100000 119000 129000
2020-08-08 08:45 13.22 97200 136000 (2019) 84500 (2016) 102000 84800 85400 100000 119000 129000
2020-08-08 07:45 13.24 97400 136000 (2019) 84500 (2016) 102000 84800 85400 100000 119000 129000
2020-08-08 06:45 13.24 97400 136000 (2019) 84500 (2016) 102000 84800 85400 100000 119000 129000
2020-08-08 05:45 13.27 97600 136000 (2019) 84500 (2016) 102000 84800 85400 100000 119000 129000
2020-08-08 04:45 13.27 97600 136000 (2019) 84500 (2016) 102000 84800 85400 100000 119000 129000
2020-08-08 03:45 13.28 97700 136000 (2019) 84500 (2016) 102000 84800 85400 100000 119000 129000
2020-08-08 02:45 13.31 98000 136000 (2019) 84500 (2016) 102000 84800 85400 100000 119000 129000
2020-08-08 01:45 13.31 98000 136000 (2019) 84500 (2016) 102000 84800 85400 100000 119000 129000
2020-08-08 00:45 13.33 98200 136000 (2019) 84500 (2016) 102000 84800 85400 100000 119000 129000

A total of 91 rows are displayed for years 2015 through 2019.